createdAt,value
2023-05-21T00:00:53.446Z,100430.44
2023-05-21T00:03:26.251Z,100455.41
2023-05-21T00:05:55.874Z,100451.13
2023-05-21T00:08:26.065Z,100435.59
2023-05-21T00:13:38.264Z,100443.31
2023-05-21T00:16:12.713Z,100432.97
2023-05-21T00:18:43.495Z,100435.53
2023-05-21T00:21:13.752Z,100444.16
2023-05-21T00:23:44.168Z,100437.25
2023-05-21T00:26:18.795Z,100428.63
2023-05-21T00:28:51.928Z,100428.66
2023-05-21T00:31:21.505Z,100432.94
2023-05-21T00:33:50.741Z,100438.13
2023-05-21T00:36:23.804Z,100426.91
2023-05-21T00:38:53.691Z,100425.16
2023-05-21T00:41:30.090Z,100423.47
2023-05-21T00:44:03.132Z,100425.16
2023-05-21T00:46:39.284Z,100430.34
2023-05-21T00:49:08.817Z,100409.66
2023-05-21T00:51:38.402Z,100413.09
2023-05-21T00:54:18.460Z,100433.81
2023-05-21T00:56:48.854Z,100419.19
2023-05-21T00:59:26.486Z,100432.97
2023-05-21T01:02:03.966Z,100438.16
2023-05-21T01:04:38.896Z,100435.56
2023-05-21T01:07:10.243Z,100439.00
2023-05-21T01:09:45.194Z,100427.78
2023-05-21T01:12:20.715Z,100427.78
2023-05-21T01:14:52.327Z,100427.75
2023-05-21T01:17:23.992Z,100425.19
2023-05-21T01:19:59.930Z,100428.63
2023-05-21T01:22:33.577Z,100435.56
2023-05-21T01:25:12.790Z,100436.41
2023-05-21T01:27:42.143Z,100430.41
2023-05-21T01:30:19.005Z,100432.13
2023-05-21T01:32:57.026Z,100420.06
2023-05-21T01:35:46.436Z,100428.63
2023-05-21T01:38:22.340Z,100434.69
2023-05-21T01:40:58.467Z,100439.00
2023-05-21T01:43:31.437Z,100430.34
2023-05-21T01:46:02.800Z,100432.94
2023-05-21T01:48:33.168Z,100441.59
2023-05-21T01:51:08.564Z,100433.81
2023-05-21T01:53:38.449Z,100439.88
2023-05-21T01:56:11.022Z,100432.97
2023-05-21T01:58:40.504Z,100432.09
2023-05-21T02:01:09.819Z,100434.69
2023-05-21T02:03:39.620Z,100432.97
2023-05-21T02:06:09.022Z,100437.25
2023-05-21T02:08:38.317Z,100423.44
2023-05-21T02:11:10.100Z,100427.75
2023-05-21T02:13:47.321Z,100431.19
2023-05-21T02:16:16.892Z,100430.31
2023-05-21T02:18:47.844Z,100429.44
2023-05-21T02:21:22.279Z,100431.16
2023-05-21T02:23:51.830Z,100426.84
2023-05-21T02:26:23.943Z,100433.75
2023-05-21T02:28:55.711Z,100413.06
2023-05-21T02:31:25.426Z,100430.28
2023-05-21T02:33:54.733Z,100428.59
2023-05-21T02:36:25.021Z,100430.28
2023-05-21T02:38:54.425Z,100432.91
2023-05-21T02:41:26.662Z,100436.34
2023-05-21T02:43:57.473Z,100430.34
2023-05-21T02:46:27.094Z,100431.19
2023-05-21T02:48:57.298Z,100429.44
2023-05-21T02:51:29.765Z,100445.81
2023-05-21T02:53:59.233Z,100440.59
2023-05-21T02:56:30.977Z,100445.75
2023-05-21T02:59:02.087Z,100441.44
2023-05-21T03:01:31.548Z,100438.84
2023-05-21T03:04:06.363Z,100444.03
2023-05-21T03:09:11.411Z,100410.47
2023-05-21T03:11:42.701Z,100433.75
2023-05-21T03:14:17.080Z,100438.91
2023-05-21T03:16:51.807Z,100429.41
2023-05-21T03:19:21.341Z,100442.38
2023-05-21T03:21:50.947Z,100445.00
2023-05-21T03:24:20.377Z,100444.13
2023-05-21T03:26:58.354Z,100445.03
2023-05-21T03:29:27.969Z,100434.66
2023-05-21T03:31:59.822Z,100443.28
2023-05-21T03:34:29.924Z,100444.16
2023-05-21T03:36:59.439Z,100442.44
2023-05-21T03:39:30.041Z,100439.84
2023-05-21T03:42:08.513Z,100440.75
2023-05-21T03:44:44.524Z,100442.44
2023-05-21T03:47:49.211Z,100445.88
2023-05-21T03:50:19.008Z,100459.66
2023-05-21T03:52:48.633Z,100451.91
2023-05-21T03:55:18.079Z,100457.09
2023-05-21T03:57:49.751Z,100459.59
2023-05-21T04:00:25.419Z,100446.59
2023-05-21T04:02:54.909Z,100449.16
2023-05-21T04:05:24.432Z,100440.50
2023-05-21T04:07:54.025Z,100444.84
2023-05-21T04:10:23.930Z,100443.09
2023-05-21T04:13:00.995Z,100448.28
2023-05-21T04:15:30.595Z,100453.41
2023-05-21T04:18:00.792Z,100448.16
2023-05-21T04:20:30.139Z,100447.31
2023-05-21T04:22:59.362Z,100435.28
2023-05-21T04:25:33.886Z,100449.03
2023-05-21T04:28:10.831Z,100440.19
2023-05-21T04:30:40.361Z,100448.69
2023-05-21T04:33:10.429Z,100452.91
2023-05-21T04:35:50.125Z,100437.16
2023-05-21T04:38:20.487Z,100443.97
2023-05-21T04:40:52.709Z,100444.03
2023-05-21T04:43:26.593Z,100451.03
2023-05-21T04:46:03.709Z,100448.28
2023-05-21T04:48:34.877Z,100437.78
2023-05-21T04:51:05.518Z,100441.25
2023-05-21T04:53:35.775Z,100447.22
2023-05-21T04:56:05.379Z,100444.59
2023-05-21T04:58:36.891Z,100455.69
2023-05-21T05:01:12.342Z,100449.50
2023-05-21T05:03:42.095Z,100452.78
2023-05-21T05:06:11.944Z,100449.16
2023-05-21T05:08:42.168Z,100447.31
2023-05-21T05:11:11.880Z,100448.84
2023-05-21T05:13:44.012Z,100448.75
2023-05-21T05:16:24.834Z,100453.09
2023-05-21T05:18:54.971Z,100447.94
2023-05-21T05:21:24.927Z,100452.38
2023-05-21T05:23:54.330Z,100451.69
2023-05-21T05:26:28.530Z,100456.56
2023-05-21T05:29:00.770Z,100462.94
2023-05-21T05:31:35.867Z,100456.13
2023-05-21T05:34:05.804Z,100467.34
2023-05-21T05:36:35.570Z,100460.47
2023-05-21T05:39:10.915Z,100463.06
2023-05-21T05:41:42.426Z,100457.78
2023-05-21T05:46:50.408Z,100464.22
2023-05-21T05:49:19.642Z,100457.94
2023-05-21T05:51:54.182Z,100468.25
2023-05-21T05:54:24.203Z,100462.88
2023-05-21T05:56:53.720Z,100465.69
2023-05-21T05:59:25.967Z,100457.06
2023-05-21T06:02:02.187Z,100451.38
2023-05-21T06:04:41.693Z,100461.03
2023-05-21T06:07:11.251Z,100462.19
2023-05-21T06:09:40.715Z,100467.81
2023-05-21T06:12:16.021Z,100459.06
2023-05-21T06:14:52.472Z,100463.81
2023-05-21T06:17:27.412Z,100457.16
2023-05-21T06:19:58.607Z,100453.13
2023-05-21T06:22:33.770Z,100457.03
2023-05-21T06:25:03.432Z,100455.69
2023-05-21T06:27:34.799Z,100453.72
2023-05-21T06:30:09.299Z,100454.78
2023-05-21T06:32:39.406Z,100448.84
2023-05-21T06:35:09.545Z,100460.41
2023-05-21T06:37:39.106Z,100456.31
2023-05-21T06:40:15.894Z,100458.06
2023-05-21T06:42:45.763Z,100462.59
2023-05-21T06:45:23.255Z,100458.16
2023-05-21T06:47:56.414Z,100452.94
2023-05-21T06:50:26.332Z,100454.13
2023-05-21T06:52:56.374Z,100461.78
2023-05-21T06:55:25.929Z,100468.78
2023-05-21T06:58:15.030Z,100465.94
2023-05-21T07:01:01.767Z,100460.34
2023-05-21T07:03:31.997Z,100447.03
2023-05-21T07:06:01.461Z,100456.88
2023-05-21T07:08:31.325Z,100466.03
2023-05-21T07:11:01.871Z,100461.00
2023-05-21T07:13:32.880Z,100455.97
2023-05-21T07:16:04.301Z,100461.84
2023-05-21T07:18:53.899Z,100460.09
2023-05-21T07:21:28.770Z,100436.28
2023-05-21T07:26:42.371Z,100462.22
2023-05-21T07:29:30.462Z,100461.31
2023-05-21T07:32:02.011Z,100461.38
2023-05-21T07:34:32.756Z,100460.09
2023-05-21T07:37:20.831Z,100455.66
2023-05-21T07:39:50.700Z,100463.63
2023-05-21T07:42:19.970Z,100473.94
2023-05-21T07:45:04.744Z,100457.34
2023-05-21T07:47:41.173Z,100451.59
2023-05-21T07:50:11.888Z,100467.63
2023-05-21T07:52:46.273Z,100460.44
2023-05-21T07:55:15.898Z,100467.03
2023-05-21T07:57:46.234Z,100459.63
2023-05-21T08:00:36.693Z,100456.56
2023-05-21T08:03:08.551Z,100465.75
2023-05-21T08:05:38.486Z,100472.84
2023-05-21T08:08:08.682Z,100456.44
2023-05-21T08:10:38.604Z,100472.59
2023-05-21T08:13:08.636Z,100475.75
2023-05-21T08:15:38.214Z,100475.50
2023-05-21T08:18:14.989Z,100471.06
2023-05-21T08:20:46.810Z,100470.06
2023-05-21T08:23:17.883Z,100461.75
2023-05-21T08:25:53.275Z,100461.75
2023-05-21T08:28:24.241Z,100472.25
2023-05-21T08:30:54.537Z,100462.22
2023-05-21T08:33:27.578Z,100463.16
2023-05-21T08:35:57.182Z,100456.34
2023-05-21T08:38:31.911Z,100457.06
2023-05-21T08:41:25.211Z,100468.13
2023-05-21T08:43:58.530Z,100451.06
2023-05-21T08:46:34.202Z,100439.31
2023-05-21T08:49:06.239Z,100462.31
2023-05-21T08:51:41.412Z,100464.47
2023-05-21T08:54:11.448Z,100461.03
2023-05-21T08:56:46.634Z,100470.50
2023-05-21T08:59:28.855Z,100440.13
2023-05-21T09:02:00.142Z,100458.09
2023-05-21T09:04:39.080Z,100458.94
2023-05-21T09:07:09.205Z,100445.63
2023-05-21T09:10:05.658Z,100452.84
2023-05-21T09:12:41.968Z,100459.34
2023-05-21T09:15:18.218Z,100454.47
2023-05-21T09:17:49.676Z,100460.88
2023-05-21T09:20:39.980Z,100449.22
2023-05-21T09:23:16.443Z,100450.09
2023-05-21T09:25:53.477Z,100463.59
2023-05-21T09:28:31.936Z,100464.09
2023-05-21T09:31:05.776Z,100465.72
2023-05-21T09:36:13.518Z,100449.59
2023-05-21T09:38:42.610Z,100455.94
2023-05-21T09:41:12.008Z,100456.03
2023-05-21T09:43:44.838Z,100454.78
2023-05-21T09:46:15.419Z,100405.88
2023-05-21T09:48:46.141Z,100449.34
2023-05-21T09:51:21.367Z,100451.50
2023-05-21T09:53:59.929Z,100446.28
2023-05-21T09:56:31.826Z,100451.53
2023-05-21T09:59:03.975Z,100462.13
2023-05-21T10:01:34.787Z,100456.13
2023-05-21T10:04:13.988Z,100438.28
2023-05-21T10:06:49.653Z,100454.91
2023-05-21T10:09:22.360Z,100466.84
2023-05-21T10:11:59.389Z,100462.19
2023-05-21T10:14:33.978Z,100451.16
2023-05-21T10:17:03.807Z,100447.75
2023-05-21T10:19:36.157Z,100440.50
2023-05-21T10:22:09.504Z,100421.72
2023-05-21T10:24:45.704Z,100438.94
2023-05-21T10:27:16.039Z,100440.69
2023-05-21T10:29:51.364Z,100460.34
2023-05-21T10:32:23.728Z,100454.69
2023-05-21T10:34:56.687Z,100459.88
2023-05-21T10:37:29.356Z,100461.84
2023-05-21T10:40:04.352Z,100447.28
2023-05-21T10:43:00.726Z,100452.00
2023-05-21T10:45:38.537Z,100453.66
2023-05-21T10:48:25.868Z,100450.97
2023-05-21T10:51:23.762Z,100446.09
2023-05-21T10:54:19.782Z,100460.31
2023-05-21T10:59:42.910Z,100458.28
2023-05-21T11:02:19.997Z,100442.91
2023-05-21T11:05:00.697Z,100453.16
2023-05-21T11:10:40.269Z,100448.31
2023-05-21T11:13:12.962Z,100454.66
2023-05-21T11:16:09.785Z,100443.44
2023-05-21T11:19:01.129Z,100451.13
2023-05-21T11:21:36.697Z,100451.19
2023-05-21T11:24:27.961Z,100443.75
2023-05-21T11:27:07.157Z,100442.47
2023-05-21T11:29:45.665Z,100447.22
2023-05-21T11:32:20.311Z,100444.25
2023-05-21T11:34:50.942Z,100454.91
2023-05-21T11:37:46.262Z,100452.34
2023-05-21T11:40:26.185Z,100445.31
2023-05-21T11:42:58.760Z,100449.44
2023-05-21T11:45:32.832Z,100440.13
2023-05-21T11:48:02.608Z,100440.69
2023-05-21T11:50:50.977Z,100437.22
2023-05-21T11:53:48.149Z,100446.38
2023-05-21T11:56:18.510Z,100450.06
2023-05-21T11:58:49.798Z,100448.78
2023-05-21T12:01:27.534Z,100446.00
2023-05-21T12:03:57.139Z,100449.22
2023-05-21T12:06:31.130Z,100446.56
2023-05-21T12:09:00.703Z,100451.47
2023-05-21T12:11:30.236Z,100449.19
2023-05-21T12:14:23.651Z,100451.88
2023-05-21T12:16:53.289Z,100456.13
2023-05-21T12:19:28.728Z,100453.34
2023-05-21T12:22:09.697Z,100453.72
2023-05-21T12:24:40.147Z,100455.19
2023-05-21T12:27:12.980Z,100457.03
2023-05-21T12:29:46.907Z,100446.00
2023-05-21T12:32:23.097Z,100449.63
2023-05-21T12:37:33.271Z,100430.75
2023-05-21T12:40:09.638Z,100446.97
2023-05-21T12:42:39.759Z,100453.91
2023-05-21T12:51:21.040Z,100451.34
2023-05-21T12:53:50.633Z,100455.91
2023-05-21T12:56:19.969Z,100450.44
2023-05-21T12:58:54.472Z,100443.28
2023-05-21T13:01:24.091Z,100446.44
2023-05-21T13:03:53.589Z,100440.19
2023-05-21T13:06:31.263Z,100448.84
2023-05-21T13:09:00.598Z,100444.75
2023-05-21T13:11:29.946Z,100442.78
2023-05-21T13:13:59.393Z,100449.31
2023-05-21T13:16:28.815Z,100453.84
2023-05-21T13:18:58.611Z,100460.81
2023-05-21T13:21:29.867Z,100454.34
2023-05-21T13:24:04.280Z,100459.09
2023-05-21T13:26:33.632Z,100456.22
2023-05-21T13:29:03.206Z,100455.84
2023-05-21T13:31:32.548Z,100454.66
2023-05-21T13:34:07.534Z,100463.75
2023-05-21T13:36:39.444Z,100463.38
2023-05-21T13:39:09.605Z,100465.56
2023-05-21T13:41:47.788Z,100466.13
2023-05-21T13:44:22.438Z,100460.34
2023-05-21T13:46:52.067Z,100460.03
2023-05-21T13:49:21.586Z,100455.91
2023-05-21T13:52:00.436Z,100461.81
2023-05-21T13:54:31.466Z,100452.75
2023-05-21T13:57:06.053Z,100459.06
2023-05-21T13:59:35.560Z,100453.84
2023-05-21T14:02:05.242Z,100443.53
2023-05-21T14:04:35.345Z,100455.75
2023-05-21T14:07:08.585Z,100453.31
2023-05-21T14:09:48.711Z,100456.41
2023-05-21T14:12:18.776Z,100449.44
2023-05-21T14:14:49.474Z,100452.06
2023-05-21T14:17:19.040Z,100458.91
2023-05-21T14:19:49.429Z,100457.63
2023-05-21T14:22:21.358Z,100453.72
2023-05-21T14:25:05.877Z,100453.78
2023-05-21T14:27:37.492Z,100447.97
2023-05-21T14:30:07.915Z,100433.09
2023-05-21T14:32:48.713Z,100447.00
2023-05-21T14:35:18.358Z,100443.59
2023-05-21T14:37:49.855Z,100418.69
2023-05-21T14:40:19.416Z,100441.22
2023-05-21T14:42:56.959Z,100450.78
2023-05-21T14:45:26.347Z,100445.34
2023-05-21T14:47:55.730Z,100455.13
2023-05-21T14:50:25.237Z,100448.41
2023-05-21T14:52:56.589Z,100453.34
2023-05-21T14:55:26.523Z,100445.78
2023-05-21T14:58:15.751Z,100440.25
2023-05-21T15:00:59.993Z,100449.38
2023-05-21T15:03:29.672Z,100446.44
2023-05-21T15:06:04.891Z,100446.66
2023-05-21T15:08:36.477Z,100459.22
2023-05-21T15:11:07.317Z,100450.91
2023-05-21T15:13:36.809Z,100454.56
2023-05-21T15:16:06.840Z,100450.78
2023-05-21T15:18:36.350Z,100437.34
2023-05-21T15:21:06.855Z,100438.34
2023-05-21T15:23:45.385Z,100447.72
2023-05-21T15:26:14.300Z,100438.50
2023-05-21T15:28:43.804Z,100441.78
2023-05-21T15:31:28.375Z,100444.00
2023-05-21T15:33:59.671Z,100451.34
2023-05-21T15:36:30.307Z,100441.84
2023-05-21T15:39:03.259Z,100443.53
2023-05-21T15:41:32.721Z,100446.31
2023-05-21T15:44:02.127Z,100444.03
2023-05-21T15:46:31.775Z,100449.38
2023-05-21T15:49:01.506Z,100449.53
2023-05-21T15:51:31.548Z,100443.66
2023-05-21T15:54:02.926Z,100438.50
2023-05-21T15:56:32.350Z,100444.97
2023-05-21T15:59:01.919Z,100438.81
2023-05-21T16:01:36.760Z,100440.50
2023-05-21T16:04:06.518Z,100445.88
2023-05-21T16:06:35.903Z,100458.88
2023-05-21T16:09:07.447Z,100452.78
2023-05-21T16:11:37.291Z,100459.25
2023-05-21T16:14:07.283Z,100457.81
2023-05-21T16:16:36.711Z,100459.88
2023-05-21T16:19:06.270Z,100460.00
2023-05-21T16:21:35.559Z,100462.00
2023-05-21T16:24:07.063Z,100465.09
2023-05-21T16:26:36.200Z,100463.13
2023-05-21T16:29:05.587Z,100468.94
2023-05-21T16:31:45.428Z,100464.97
2023-05-21T16:34:14.766Z,100467.72
2023-05-21T16:36:44.033Z,100467.84
2023-05-21T16:39:20.522Z,100461.84
2023-05-21T16:41:49.951Z,100456.63
2023-05-21T16:44:20.088Z,100462.63
2023-05-21T16:46:49.718Z,100462.25
2023-05-21T16:49:19.019Z,100457.00
2023-05-21T16:51:48.319Z,100464.56
2023-05-21T16:54:19.574Z,100462.00
2023-05-21T16:56:49.100Z,100459.66
2023-05-21T16:59:19.004Z,100464.69
2023-05-21T17:01:53.656Z,100465.09
2023-05-21T17:04:23.024Z,100459.72
2023-05-21T17:06:52.412Z,100453.34
2023-05-21T17:09:23.827Z,100466.00
2023-05-21T17:11:58.175Z,100460.53
2023-05-21T17:17:08.347Z,100459.16
2023-05-21T17:19:38.491Z,100474.25
2023-05-21T17:22:08.006Z,100473.81
2023-05-21T17:24:39.284Z,100475.06
2023-05-21T17:27:08.729Z,100480.53
2023-05-21T17:29:38.186Z,100475.63
2023-05-21T17:32:08.505Z,100469.06
2023-05-21T17:34:38.158Z,100481.19
2023-05-21T17:37:08.051Z,100479.63
2023-05-21T17:39:44.639Z,100479.72
2023-05-21T17:42:14.055Z,100486.72
2023-05-21T17:44:43.365Z,100478.19
2023-05-21T17:47:17.921Z,100483.50
2023-05-21T17:49:47.464Z,100489.56
2023-05-21T17:52:25.367Z,100487.06
2023-05-21T17:54:56.779Z,100493.13
2023-05-21T17:57:26.440Z,100488.81
2023-05-21T17:59:56.013Z,100486.28
2023-05-21T18:05:02.367Z,100489.88
2023-05-21T18:07:33.600Z,100483.94
2023-05-21T18:10:11.052Z,100478.81
2023-05-21T18:12:41.703Z,100493.53
2023-05-21T18:15:12.031Z,100470.28
2023-05-21T18:17:41.431Z,100489.22
2023-05-21T18:20:11.672Z,100494.47
2023-05-21T18:22:46.715Z,100485.91
2023-05-21T18:25:18.048Z,100490.28
2023-05-21T18:27:47.701Z,100479.97
2023-05-21T18:30:17.895Z,100488.78
2023-05-21T18:32:47.394Z,100476.84
2023-05-21T18:35:16.999Z,100495.06
2023-05-21T18:37:48.377Z,100495.16
2023-05-21T18:40:21.475Z,100492.59
2023-05-21T18:42:51.062Z,100492.59
2023-05-21T18:45:20.363Z,100495.25
2023-05-21T18:47:50.929Z,100491.81
2023-05-21T18:50:25.689Z,100503.09
2023-05-21T18:53:00.211Z,100498.81
2023-05-21T18:55:31.673Z,100500.53
2023-05-21T18:58:01.355Z,100497.94
2023-05-21T19:00:31.106Z,100499.66
2023-05-21T19:03:05.886Z,100498.84
2023-05-21T19:05:35.388Z,100483.38
2023-05-21T19:08:04.832Z,100501.50
2023-05-21T19:10:39.030Z,100497.22
2023-05-21T19:13:08.746Z,100498.09
2023-05-21T19:15:38.120Z,100491.16
2023-05-21T19:18:18.974Z,100497.19
2023-05-21T19:20:48.414Z,100495.50
2023-05-21T19:23:18.139Z,100489.53
2023-05-21T19:25:50.251Z,100496.47
2023-05-21T19:28:24.654Z,100489.59
2023-05-21T19:30:54.271Z,100493.06
2023-05-21T19:33:23.721Z,100496.47
2023-05-21T19:35:58.120Z,100497.31
2023-05-21T19:38:27.506Z,100494.66
2023-05-21T19:41:04.215Z,100492.09
2023-05-21T19:43:33.762Z,100493.88
2023-05-21T19:46:03.646Z,100497.31
2023-05-21T19:48:34.678Z,100497.25
2023-05-21T19:51:04.249Z,100492.03
2023-05-21T19:53:34.542Z,100497.19
2023-05-21T19:56:11.784Z,100500.56
2023-05-21T19:58:41.514Z,100502.25
2023-05-21T20:01:11.177Z,100495.31
2023-05-21T20:03:42.555Z,100481.44
2023-05-21T20:06:18.625Z,100494.31
2023-05-21T20:08:48.217Z,100496.91
2023-05-21T20:11:21.094Z,100485.69
2023-05-21T20:13:56.998Z,100496.94
2023-05-21T20:16:26.841Z,100486.63
2023-05-21T20:19:01.683Z,100495.25
2023-05-21T20:21:32.269Z,100496.19
2023-05-21T20:24:10.822Z,100500.53
2023-05-21T20:26:44.754Z,100491.88
2023-05-21T20:29:14.184Z,100491.94
2023-05-21T20:31:43.572Z,100490.31
2023-05-21T20:34:13.210Z,100490.38
2023-05-21T20:36:43.201Z,100490.44
2023-05-21T20:39:13.710Z,100490.44
2023-05-21T20:41:46.737Z,100499.03
2023-05-21T20:44:16.063Z,100506.72
2023-05-21T20:46:46.088Z,100504.91
2023-05-21T20:49:17.293Z,100510.06
2023-05-21T20:51:52.154Z,100507.53
2023-05-21T20:54:21.847Z,100515.31
2023-05-21T20:56:54.531Z,100505.75
2023-05-21T21:01:59.191Z,100515.94
2023-05-21T21:04:28.633Z,100526.28
2023-05-21T21:09:46.353Z,100521.09
2023-05-21T21:12:26.566Z,100519.34
2023-05-21T21:14:57.399Z,100510.66
2023-05-21T21:17:26.808Z,100512.31
2023-05-21T21:19:56.083Z,100505.38
2023-05-21T21:22:25.386Z,100500.25
2023-05-21T21:24:59.935Z,100509.78
2023-05-21T21:27:31.277Z,100518.50
2023-05-21T21:30:00.831Z,100502.19
2023-05-21T21:32:30.644Z,100508.31
2023-05-21T21:35:00.159Z,100499.72
2023-05-21T21:37:29.502Z,100501.47
2023-05-21T21:39:59.045Z,100498.00
2023-05-21T21:42:30.485Z,100491.06
2023-05-21T21:44:59.957Z,100499.69
2023-05-21T21:47:29.361Z,100497.94
2023-05-21T21:52:49.211Z,100501.47
2023-05-21T21:55:19.193Z,100493.69
2023-05-21T21:57:50.474Z,100498.00
2023-05-21T22:00:20.864Z,100489.44
2023-05-21T22:02:50.128Z,100476.53
2023-05-21T22:05:19.520Z,100492.09
2023-05-21T22:07:49.041Z,100475.78
2023-05-21T22:10:18.741Z,100484.47
2023-05-21T22:15:36.833Z,100481.91
2023-05-21T22:18:09.173Z,100494.81
2023-05-21T22:20:38.762Z,100492.19
2023-05-21T22:23:08.394Z,100487.03
2023-05-21T22:25:44.084Z,100475.81
2023-05-21T22:28:17.203Z,100476.72
2023-05-21T22:30:46.724Z,100480.19
2023-05-21T22:33:16.239Z,100473.31
2023-05-21T22:35:50.780Z,100464.72
2023-05-21T22:38:25.451Z,100466.44
2023-05-21T22:41:00.720Z,100465.63
2023-05-21T22:43:33.092Z,100469.09
2023-05-21T22:46:03.265Z,100470.81
2023-05-21T22:48:45.801Z,100476.84
2023-05-21T22:51:15.355Z,100476.00
2023-05-21T22:53:44.722Z,100468.25
2023-05-21T22:56:16.569Z,100465.69
2023-05-21T22:58:47.457Z,100478.63
2023-05-21T23:01:16.828Z,100473.50
2023-05-21T23:03:46.270Z,100469.13
2023-05-21T23:06:20.887Z,100469.09
2023-05-21T23:08:50.171Z,100472.53
2023-05-21T23:11:19.591Z,100480.34
2023-05-21T23:13:50.866Z,100475.19
2023-05-21T23:16:22.349Z,100457.97
2023-05-21T23:18:57.485Z,100467.41
2023-05-21T23:21:26.988Z,100472.50
2023-05-21T23:23:56.228Z,100472.47
2023-05-21T23:26:30.778Z,100473.28
2023-05-21T23:29:02.260Z,100477.56
2023-05-21T23:31:37.702Z,100476.75
2023-05-21T23:34:07.179Z,100474.16
2023-05-21T23:36:36.502Z,100476.72
2023-05-21T23:39:11.082Z,100481.94
2023-05-21T23:41:40.583Z,100486.28
2023-05-21T23:44:12.340Z,100483.66
2023-05-21T23:46:41.810Z,100480.16
2023-05-21T23:49:11.260Z,100481.06
2023-05-21T23:51:40.724Z,100486.28
2023-05-21T23:54:10.061Z,100470.78
2023-05-21T23:56:39.441Z,100474.25
2023-05-21T23:59:14.615Z,100476.88
